Nearby METAR Reports

 

KAGC - Pittsburgh/Alleg, Pennsylvania, USA
Distance from station: N 14mi, 23km
Updated: Thu, Aug-06-2020 4:53am EDT
Overcast
Overcast
 Wind from varies
Wind: varies 3 mph , 6 km/h
Temperature: 61°F , 16°C
Dew Point: 57°F , 14°C
Humidity: 88%
Barometer: 30.11 inHg , 1019.6 hPa
Clouds: Overcast
Visibility: 10 miles , 16 km
Cloud details: Overcast 9000 ft
2020/08/06 08:53 KAGC 060853Z VRB03KT 10SM OVC090 16/14 A3011 RMK AO2 SLP193 T01610139 58000 $
KAFJ - Washington, Pennsylvania, USA
Distance from station: W 17mi, 28km
Updated: Thu, Aug-06-2020 4:56am EDT
Overcast
Overcast
 Wind from calm
Wind: Calm
Temperature: 55°F , 13°C
Dew Point: 55°F , 13°C
Humidity: 100%
Barometer: 30.15 inHg , 1021 hPa
Clouds: Overcast
Visibility: 10 miles , 16 km
Cloud details: Overcast 8500 ft
2020/08/06 08:56 KAFJ 060856Z AUTO 00000KT 10SM OVC085 13/13 A3015 RMK AO2 SLP203 T01330128 53001
 
KLBE - Latrobe, Pennsylvania, USA
Distance from station: ENE 30mi, 48km
Updated: Thu, Aug-06-2020 5:15am EDT
Mostly cloudy
Mostly cloudy
 Wind from calm
Wind: Calm
Temperature: 59°F , 15°C
Dew Point: 59°F , 15°C
Humidity: 100%
Barometer: 30.13 inHg , 1020.3 hPa
Clouds: Mostly cloudy
Visibility: 10 miles , 16 km
Cloud details: Few Clouds 5500 ft
Partly cloudy 7000 ft
Mostly cloudy 9500 ft
2020/08/06 09:15 KLBE 060915Z AUTO 00000KT 10SM FEW055 SCT070 BKN095 15/15 A3013 RMK AO2
KPIT - Pittsburgh, Pennsylvania, USA
Distance from station: NW 30mi, 48km
Updated: Thu, Aug-06-2020 4:51am EDT
Partly cloudy
Partly cloudy
 Wind from N
Wind: N 6 mph , 9 km/h
Temperature: 61°F , 16°C
Dew Point: 55°F , 13°C
Humidity: 83%
Barometer: 30.12 inHg , 1020 hPa
Clouds: Partly cloudy
Visibility: 10 miles , 16 km
Cloud details: Few Clouds 8500 ft
Partly cloudy 25000 ft
2020/08/06 08:51 KPIT 060851Z 01005KT 10SM FEW085 SCT250 16/13 A3012 RMK AO2 SLP200 T01610128 53000
 
KMGW - Morgantown, West Virginia, USA
Distance from station: S 34mi, 55km
Updated: Thu, Aug-06-2020 4:53am EDT
Few Clouds
Few Clouds
 Wind from N
Wind: N 3 mph , 6 km/h
Temperature: 61°F , 16°C
Dew Point: 57°F , 14°C
Humidity: 88%
Barometer: 30.11 inHg , 1019.6 hPa
Clouds: Few Clouds
Visibility: 10 miles , 16 km
Cloud details: Few Clouds 5500 ft
2020/08/06 08:53 KMGW 060853Z AUTO 01003KT 10SM FEW055 16/14 A3011 RMK AO2 SLP190 T01610139 50001
KHLG - Wheeling, West Virginia, USA
Distance from station: W 37mi, 60km
Updated: Thu, Aug-06-2020 4:53am EDT
Mostly cloudy
Mostly cloudy
 Wind from NE
Wind: NE 3 mph , 6 km/h
Temperature: 59°F , 15°C
Dew Point: 55°F , 13°C
Humidity: 88%
Barometer: 30.12 inHg , 1020 hPa
Clouds: Mostly cloudy
Visibility: 10 miles , 16 km
Cloud details: Mostly cloudy 7000 ft
2020/08/06 08:53 KHLG 060853Z AUTO 04003KT 10SM BKN070 15/13 A3012 RMK AO2 SLP195 T01500128 55000
 
KBTP - Butler Co., Pennsylvania, USA
Distance from station: N 43mi, 69km
Updated: Thu, Aug-06-2020 4:56am EDT
Few Clouds
Few Clouds
 Wind from NNE
Wind: NNE 5 mph , 7 km/h
Temperature: 55°F , 13°C
Dew Point: 54°F , 12°C
Humidity: 94%
Barometer: 30.15 inHg , 1021 hPa
Clouds: Few Clouds
Visibility: 10 miles , 16 km
Cloud details: Few Clouds 4700 ft
2020/08/06 08:56 KBTP 060856Z AUTO 03004KT 10SM FEW047 13/12 A3015 RMK AO2 SLP210 T01280122 53001
KBVI - Beaver Falls Arp, Pennsylvania, USA
Distance from station: NNW 49mi, 79km
Updated: Thu, Aug-06-2020 5:15am EDT
Clear
Clear
 Wind from calm
Wind: Calm
Temperature: 59°F , 15°C
Dew Point: 55°F , 13°C
Humidity: 88%
Barometer: 30.14 inHg , 1020.7 hPa
Clouds: Clear
Visibility: 10 miles , 16 km
2020/08/06 09:15 KBVI 060915Z AUTO 00000KT 10SM CLR 15/13 A3014 RMK AO2 T01530127
 
K2G4 - Garrett Co, Maryland, USA
Distance from station: SE 51mi, 82km
Updated: Thu, Aug-06-2020 5:15am EDT
Mostly cloudy
Mostly cloudy
 Wind from E
Wind: E 6 mph , 9 km/h
Temperature: 59°F , 15°C
Dew Point: 50°F , 10°C
Humidity: 72%
Barometer: 30.16 inHg , 1021.3 hPa
Clouds: Mostly cloudy
Visibility: 10 miles , 16 km
Cloud details: Mostly cloudy 3700 ft
2020/08/06 09:15 K2G4 060915Z AUTO 08005KT 10SM BKN037 15/10 A3016 RMK AO1
KIDI - Indiana/Stewart, Pennsylvania, USA
Distance from station: NE 56mi, 90km
Updated: Thu, Aug-06-2020 5:15am EDT
Overcast
Overcast
 Wind from E
Wind: E 5 mph , 7 km/h
Temperature: 59°F , 15°C
Dew Point: 55°F , 13°C
Humidity: 88%
Barometer: 30.18 inHg , 1022 hPa
Clouds: Overcast
Visibility: 10 miles , 16 km
Cloud details: Overcast 8000 ft
2020/08/06 09:15 KIDI 060915Z AUTO 08004KT 10SM OVC080 15/13 A3018 RMK A01
 
KJST - Johnstown, Pennsylvania, USA
Distance from station: ENE 60mi, 96km
Updated: Thu, Aug-06-2020 4:54am EDT
Overcast
Overcast
 Wind from ENE
Wind: ENE 8 mph , 13 km/h
Temperature: 57°F , 14°C
Dew Point: 52°F , 11°C
Humidity: 82%
Barometer: 30.14 inHg , 1020.7 hPa
Clouds: Overcast
Visibility: 10 miles , 16 km
Cloud details: Mostly cloudy 4100 ft
Overcast 5000 ft
2020/08/06 08:54 KJST 060854Z AUTO 06007KT 10SM BKN041 OVC050 14/11 A3014 RMK AO2 SLP198 T01390106 57001
KCBE - Cumberland Reg, Maryland, USA
Distance from station: ESE 72mi, 116km
Updated: Thu, Aug-06-2020 5:15am EDT
Overcast
Overcast
 Wind from N
Wind: N 6 mph , 9 km/h
Temperature: 66°F , 19°C
Dew Point: 57°F , 14°C
Humidity: 73%
Barometer: 30.14 inHg , 1020.7 hPa
Clouds: Overcast
Visibility: 10 miles , 16 km
Cloud details: Overcast 3500 ft
2020/08/06 09:15 KCBE 060915Z AUTO 35005KT 10SM OVC035 19/14 A3014 RMK AO2 T01910139
 
KILG - Wilmington, Delaware, USA
Distance from station: ESE 234mi, 377km
Updated: Thu, Aug-06-2020 4:51am EDT
Clear
Clear
 Wind from N
Wind: N 5 mph , 7 km/h
Temperature: 72°F , 22°C
Dew Point: 68°F , 20°C
Humidity: 88%
Barometer: 30.06 inHg , 1017.9 hPa
Clouds: Clear
Visibility: 10 miles , 16 km
2020/08/06 08:51 KILG 060851Z AUTO 35004KT 10SM CLR 22/20 A3006 RMK AO2 SLP176 T02170200 58002 $
KTUS - Tucson, Arizona, USA
Distance from station: WSW 1806mi, 3283km
Updated: Thu, Aug-06-2020 4:53am EDT
Clear
Clear
 Wind from SSE
Wind: SSE 6 mph , 9 km/h
Temperature: 82°F , 28°C
Dew Point: 39°F , 4°C
Humidity: 21%
Barometer: 29.94 inHg , 1013.9 hPa
Clouds: Clear
Visibility: 10 miles , 16 km
2020/08/06 08:53 KTUS 060853Z 15005KT 10SM CLR 28/04 A2994 RMK AO2 SLP079 T02830044 50000